createdAt,value
2019-01-09T00:01:37.868Z,14.38
2019-01-09T00:06:50.405Z,18.23
2019-01-09T00:12:02.419Z,17.53
2019-01-09T00:17:13.986Z,13.67
2019-01-09T00:22:24.614Z,14.85
2019-01-09T00:27:37.957Z,15.33
2019-01-09T00:32:52.580Z,11.33
2019-01-09T00:38:02.658Z,12.63
2019-01-09T00:43:10.870Z,16.13
2019-01-09T00:48:26.181Z,12.83
2019-01-09T00:53:36.902Z,15.27
2019-01-09T00:58:46.223Z,10.00
2019-01-09T01:04:38.372Z,16.70
2019-01-09T01:10:35.395Z,15.60
2019-01-09T01:16:21.090Z,11.17
2019-01-09T01:21:36.522Z,8.73
2019-01-09T01:27:04.834Z,12.27
2019-01-09T01:32:33.928Z,15.70
2019-01-09T01:37:57.480Z,10.20
2019-01-09T01:43:28.717Z,13.17
2019-01-09T01:49:07.145Z,13.72
2019-01-09T01:54:52.263Z,11.18
2019-01-09T02:00:30.211Z,15.77
2019-01-09T02:05:50.502Z,11.10
2019-01-09T02:11:33.487Z,11.53
2019-01-09T02:16:58.727Z,9.73
2019-01-09T02:22:26.789Z,9.83
2019-01-09T02:28:01.101Z,8.33
2019-01-09T02:33:09.785Z,5.73
2019-01-09T02:38:19.703Z,9.70
2019-01-09T02:43:28.226Z,10.73
2019-01-09T02:48:40.776Z,8.80
2019-01-09T02:53:49.698Z,7.60
2019-01-09T02:59:05.922Z,7.47
2019-01-09T03:04:19.371Z,8.83
2019-01-09T03:09:29.255Z,8.53
2019-01-09T03:14:40.992Z,5.00
2019-01-09T03:19:54.437Z,4.47
2019-01-09T03:25:02.003Z,9.87
2019-01-09T03:30:17.705Z,4.33
2019-01-09T03:35:34.514Z,6.83
2019-01-09T03:40:47.909Z,5.60
2019-01-09T03:45:58.595Z,10.77
2019-01-09T03:51:06.983Z,5.50
2019-01-09T03:56:14.945Z,11.55
2019-01-09T04:01:25.642Z,9.13
2019-01-09T04:06:41.828Z,5.67
2019-01-09T04:11:49.666Z,10.30
2019-01-09T04:16:59.525Z,11.53
2019-01-09T04:22:12.011Z,13.67
2019-01-09T04:27:23.876Z,14.10
2019-01-09T04:32:37.412Z,12.83
2019-01-09T04:37:50.081Z,14.47
2019-01-09T04:42:59.934Z,10.23
2019-01-09T04:48:33.901Z,8.10
2019-01-09T04:53:47.462Z,15.40
2019-01-09T04:58:59.128Z,12.20
2019-01-09T05:04:09.900Z,13.47
2019-01-09T05:09:23.453Z,12.75
2019-01-09T05:14:36.493Z,13.33
2019-01-09T05:19:49.370Z,14.07
2019-01-09T05:24:55.684Z,11.10
2019-01-09T05:30:03.322Z,10.33
2019-01-09T05:35:12.705Z,9.67
2019-01-09T05:40:25.442Z,11.77
2019-01-09T05:45:33.597Z,9.20
2019-01-09T05:50:47.161Z,20.83
2019-01-09T05:55:59.812Z,10.67
2019-01-09T06:01:07.853Z,12.10
2019-01-09T06:06:21.476Z,13.73
2019-01-09T06:13:13.199Z,12.03
2019-01-09T06:18:21.700Z,14.43
2019-01-09T06:23:31.067Z,15.17
2019-01-09T06:28:44.651Z,17.37
2019-01-09T06:33:56.963Z,14.63
2019-01-09T06:39:09.892Z,17.20
2019-01-09T06:44:18.307Z,11.53
2019-01-09T06:49:26.982Z,12.25
2019-01-09T06:54:37.738Z,16.67
2019-01-09T06:59:46.862Z,12.63
2019-01-09T07:05:00.294Z,12.23
2019-01-09T07:10:11.462Z,9.67
2019-01-09T07:15:23.101Z,10.82
2019-01-09T07:20:33.733Z,13.22
2019-01-09T07:25:43.516Z,6.57
2019-01-09T07:30:50.852Z,10.27
2019-01-09T07:36:00.643Z,8.83
2019-01-09T07:41:11.557Z,7.10
2019-01-09T07:46:20.460Z,11.80
2019-01-09T07:51:30.310Z,4.73
2019-01-09T07:56:39.213Z,13.27
2019-01-09T08:01:50.021Z,11.93
2019-01-09T08:07:01.676Z,7.63
2019-01-09T08:12:12.945Z,9.67
2019-01-09T08:17:22.728Z,11.18
2019-01-09T08:22:32.074Z,10.77
2019-01-09T08:27:42.826Z,13.47
2019-01-09T08:32:50.262Z,17.37
2019-01-09T08:38:02.947Z,20.17
2019-01-09T08:43:12.612Z,17.57
2019-01-09T08:48:20.044Z,20.15
2019-01-09T08:53:33.608Z,20.33
2019-01-09T08:58:46.946Z,25.13
2019-01-09T09:03:56.912Z,18.62
2019-01-09T09:09:08.068Z,20.47
2019-01-09T09:14:17.024Z,24.00
2019-01-09T09:19:27.188Z,20.52
2019-01-09T09:24:36.976Z,16.07
2019-01-09T09:29:47.808Z,19.20
2019-01-09T09:34:52.815Z,15.97
2019-01-09T09:40:00.281Z,20.03
2019-01-09T09:45:11.779Z,21.97
2019-01-09T09:50:25.317Z,17.45
2019-01-09T09:55:34.163Z,12.47
2019-01-09T10:00:42.584Z,10.00
2019-01-09T10:05:50.974Z,16.47
2019-01-09T10:11:05.185Z,18.67
2019-01-09T10:16:19.618Z,18.93
2019-01-09T10:21:28.451Z,12.90
2019-01-09T10:26:39.019Z,13.47
2019-01-09T10:31:50.259Z,14.90
2019-01-09T10:37:00.906Z,14.43
2019-01-09T10:42:08.693Z,11.60
2019-01-09T10:47:18.502Z,8.63
2019-01-09T10:52:27.311Z,12.82
2019-01-09T10:57:37.971Z,10.17
2019-01-09T11:02:45.288Z,10.90
2019-01-09T11:07:53.206Z,12.00
2019-01-09T11:13:04.770Z,8.13
2019-01-09T11:18:13.586Z,8.63
2019-01-09T11:23:22.987Z,7.87
2019-01-09T11:28:34.567Z,10.07
2019-01-09T11:33:46.303Z,8.73
2019-01-09T11:38:59.729Z,15.73
2019-01-09T11:44:11.281Z,9.53
2019-01-09T11:49:20.143Z,13.30
2019-01-09T11:54:28.715Z,13.03
2019-01-09T11:59:43.974Z,11.53
2019-01-09T12:04:54.794Z,13.60
2019-01-09T12:10:03.417Z,11.10
2019-01-09T12:15:14.072Z,12.57
2019-01-09T12:20:21.673Z,6.13
2019-01-09T12:25:36.064Z,7.20
2019-01-09T12:30:42.899Z,7.57
2019-01-09T12:35:52.111Z,6.37
2019-01-09T12:41:03.861Z,8.47
2019-01-09T12:46:12.772Z,6.70
2019-01-09T12:51:19.778Z,6.07
2019-01-09T12:56:26.932Z,4.57
2019-01-09T13:01:34.628Z,4.90
2019-01-09T13:06:40.717Z,7.50
2019-01-09T13:11:52.418Z,9.27
2019-01-09T13:17:11.840Z,8.60
2019-01-09T13:22:14.359Z,6.77
2019-01-09T13:27:26.376Z,6.57
2019-01-09T13:32:34.112Z,5.57
2019-01-09T13:37:46.019Z,9.97
2019-01-09T13:42:55.901Z,9.67
2019-01-09T13:48:04.356Z,7.87
2019-01-09T13:53:12.867Z,6.47
2019-01-09T13:58:21.289Z,8.13
2019-01-09T14:03:28.755Z,6.70
2019-01-09T14:08:35.309Z,6.03
2019-01-09T14:13:45.388Z,5.63
2019-01-09T14:18:56.405Z,13.63
2019-01-09T14:24:10.429Z,6.90
2019-01-09T14:29:20.639Z,9.23
2019-01-09T14:34:31.822Z,7.77
2019-01-09T14:39:48.155Z,10.97
2019-01-09T14:44:55.675Z,11.00
2019-01-09T14:50:12.208Z,5.50
2019-01-09T14:55:21.259Z,6.30
2019-01-09T15:00:32.321Z,9.33
2019-01-09T15:05:44.898Z,7.60
2019-01-09T15:10:55.071Z,10.73
2019-01-09T15:16:05.318Z,9.70
2019-01-09T15:21:14.094Z,10.80
2019-01-09T15:26:26.756Z,7.57
2019-01-09T15:31:34.429Z,8.03
2019-01-09T15:36:45.351Z,10.60
2019-01-09T15:41:54.027Z,12.03
2019-01-09T15:47:02.348Z,7.03
2019-01-09T15:52:12.005Z,7.80
2019-01-09T15:57:20.785Z,7.33
2019-01-09T16:02:27.842Z,9.37
2019-01-09T16:07:41.806Z,9.07
2019-01-09T16:12:52.073Z,4.53
2019-01-09T16:17:57.364Z,13.73
2019-01-09T16:23:12.119Z,8.63
2019-01-09T16:28:24.611Z,11.50
2019-01-09T16:33:37.098Z,9.80
2019-01-09T16:38:50.022Z,10.27
2019-01-09T16:44:02.346Z,9.67
2019-01-09T16:49:13.551Z,5.67
2019-01-09T16:54:25.710Z,9.20
2019-01-09T16:59:33.264Z,14.00
2019-01-09T17:04:41.221Z,7.73
2019-01-09T17:09:48.408Z,5.37
2019-01-09T17:14:57.089Z,8.40
2019-01-09T17:20:05.588Z,10.43
2019-01-09T17:25:13.740Z,8.67
2019-01-09T17:30:33.043Z,9.97
2019-01-09T17:35:48.527Z,8.83
2019-01-09T17:41:04.424Z,8.37
2019-01-09T17:46:11.492Z,11.87
2019-01-09T17:51:20.194Z,8.70
2019-01-09T17:56:27.353Z,5.83
2019-01-09T18:01:40.340Z,10.57
2019-01-09T18:06:49.958Z,6.73
2019-01-09T18:11:59.140Z,11.73
2019-01-09T18:17:09.247Z,12.97
2019-01-09T18:22:20.276Z,8.80
2019-01-09T18:27:28.126Z,8.77
2019-01-09T18:32:50.371Z,11.03
2019-01-09T18:38:29.101Z,8.70
2019-01-09T18:43:47.350Z,12.67
2019-01-09T18:49:32.866Z,10.53
2019-01-09T18:54:38.384Z,15.00
2019-01-09T18:59:51.078Z,13.13
2019-01-09T19:05:00.155Z,11.00
2019-01-09T19:10:10.626Z,10.17
2019-01-09T19:15:19.467Z,8.83
2019-01-09T19:20:27.942Z,9.17
2019-01-09T19:25:37.717Z,7.57
2019-01-09T19:30:48.420Z,10.67
2019-01-09T19:35:59.973Z,7.87
2019-01-09T19:41:16.688Z,12.20
2019-01-09T19:46:17.753Z,8.73
2019-01-09T19:51:29.724Z,12.27
2019-01-09T19:56:36.192Z,9.03
2019-01-09T20:01:42.160Z,12.50
2019-01-09T20:06:49.427Z,9.30
2019-01-09T20:11:59.384Z,7.63
2019-01-09T20:17:13.670Z,10.13
2019-01-09T20:22:20.999Z,9.30
2019-01-09T20:27:30.688Z,11.40
2019-01-09T20:32:37.803Z,11.60
2019-01-09T20:37:48.241Z,8.70
2019-01-09T20:43:19.058Z,11.83
2019-01-09T20:48:29.739Z,11.43
2019-01-09T20:53:40.576Z,9.33
2019-01-09T20:58:49.493Z,9.00
2019-01-09T21:03:59.193Z,8.33
2019-01-09T21:09:11.638Z,13.27
2019-01-09T21:14:20.022Z,9.83
2019-01-09T21:19:29.768Z,9.60
2019-01-09T21:24:38.659Z,10.20
2019-01-09T21:29:47.957Z,8.50
2019-01-09T21:34:58.050Z,15.63
2019-01-09T21:40:06.582Z,13.07
2019-01-09T21:45:15.858Z,5.87
2019-01-09T21:50:22.814Z,10.87
2019-01-09T21:55:30.078Z,5.87
2019-01-09T22:00:46.094Z,10.23
2019-01-09T22:05:57.612Z,12.87
2019-01-09T22:11:07.330Z,13.67
2019-01-09T22:16:22.051Z,13.70
2019-01-09T22:21:31.713Z,13.47
2019-01-09T22:26:42.877Z,14.47
2019-01-09T22:31:53.028Z,11.67
2019-01-09T22:37:02.369Z,8.30
2019-01-09T22:42:12.054Z,10.63
2019-01-09T22:47:22.051Z,13.33
2019-01-09T22:52:29.763Z,14.40
2019-01-09T22:57:39.531Z,7.87
2019-01-09T23:02:52.068Z,10.50
2019-01-09T23:08:07.342Z,11.03
2019-01-09T23:13:14.789Z,12.27
2019-01-09T23:18:22.488Z,13.80
2019-01-09T23:23:30.473Z,12.93
2019-01-09T23:28:41.955Z,14.57
2019-01-09T23:33:49.923Z,9.57
2019-01-09T23:38:56.870Z,11.93
2019-01-09T23:44:07.553Z,8.47
2019-01-09T23:49:18.626Z,11.63
2019-01-09T23:54:29.325Z,12.93
2019-01-09T23:59:37.252Z,10.03
